LSME - Emmen, Switzerland
Distance from HB9FEE: SW 14km
Updated: Sat, 27-May-2017 2:50pm CEST
Clear
Clear
 Wind from varies
Wind: varies 4 km/h
Temperature: 27°C
Heat Index: 27°C
Dew Point: 15°C
Humidity: 48%
Barometer: 1019 hPa
Clouds: Clear
Visibility: 16 miles
2017/05/27 12:50 LSME 271250Z AUTO VRB02KT 9999NDV NCD 27/15 Q1019 RMK
LSZC - Buochs, Switzerland
Distance from HB9FEE: S 25km
Updated: Sat, 27-May-2017 3:20pm CEST
Clear
Clear
 Wind from E
Wind: E 7 km/h
Temperature: 28°C
Heat Index: 28°C
Dew Point: 14°C
Humidity: 42%
Barometer: 1019 hPa
Summary: Clear
Visibility: greater than 10 km
2017/05/27 13:20 LSZC 271320Z AUTO 10004KT 050V160 CAVOK 28/14 Q1019
 
LSMA - Alpnach, Switzerland
Distance from HB9FEE: SSW 29km
Updated: Sat, 27-May-2017 2:50pm CEST
Clear
Clear
 Wind from ENE
Wind: ENE 20 km/h
Temperature: 27°C
Heat Index: 28°C
Dew Point: 16°C
Humidity: 51%
Barometer: 1019 hPa
Clouds: Clear
Visibility: 16 miles
2017/05/27 12:50 LSMA 271250Z AUTO 07011KT 030V100 9999NDV NCD 27/16 Q1019 RMK
LSMD - Dubendorf, Switzerland
Distance from HB9FEE: NE 29km
Updated: Sat, 27-May-2017 2:50pm CEST
Clear
Clear
 Wind from varies
Wind: varies 4 km/h
Temperature: 28°C
Dew Point: 12°C
Humidity: 37%
Barometer: 1019 hPa
Clouds: Clear
Visibility: 16 miles
2017/05/27 12:50 LSMD 271250Z AUTO VRB02KT 9999NDV NCD 28/12 Q1019 RMK
 
LSZH - Zurich-Kloten (a, Switzerland
Distance from HB9FEE: NNE 33km
Updated: Sat, 27-May-2017 3:20pm CEST
Clear
Clear
 Wind from varies
Wind: varies 6 km/h
Temperature: 28°C
Dew Point: 12°C
Humidity: 37%
Barometer: 1019 hPa
Summary: Clear
Visibility: greater than 10 km
2017/05/27 13:20 LSZH 271320Z VRB03KT CAVOK 28/12 Q1019 NOSIG
LSMM - Meiringen, Switzerland
Distance from HB9FEE: SSW 54km
Updated: Sat, 27-May-2017 2:50pm CEST
Clear
Clear
 Wind from varies
Wind: varies 2 km/h
Temperature: 28°C
Heat Index: 28°C
Dew Point: 15°C
Humidity: 45%
Barometer: 1019 hPa
Clouds: Clear
Visibility: 1.6 miles
2017/05/27 12:50 LSMM 271250Z AUTO VRB01KT 1000NDV R10/1700N R28/P2000D NCD 28/15 Q1019 RMK
 
LSZB - Bern/Belp, Switzerland
Distance from HB9FEE: WSW 76km
Updated: Sat, 27-May-2017 3:20pm CEST
Clear
Clear
 Wind from varies
Wind: varies 6 km/h
Temperature: 28°C
Heat Index: 28°C
Dew Point: 14°C
Humidity: 42%
Barometer: 1019 hPa
Summary: Clear
Visibility: greater than 10 km
2017/05/27 13:20 LSZB 271320Z VRB03KT CAVOK 28/14 Q1019 NOSIG
LSZG - Grenchen, Switzerland
Distance from HB9FEE: W 76km
Updated: Sat, 27-May-2017 3:20pm CEST
Few Clouds
Few Clouds
 Wind from WSW
Wind: WSW 6 km/h
Temperature: 28°C
Heat Index: 27°C
Dew Point: 13°C
Humidity: 40%
Barometer: 1019 hPa
Clouds: Few Clouds
Visibility: 10 km
Cloud details: Few Clouds 1676 m
2017/05/27 13:20 LSZG 271320Z 24003KT 160V300 9999 FEW055 28/13 Q1019 NOSIG
 
LFSB - Bale/Mulhouse, France
Distance from HB9FEE: NW 82km
Updated: Sat, 27-May-2017 3:30pm CEST
Clear
Clear
 Wind from varies
Wind: varies 6 km/h
Temperature: 30°C
Dew Point: 13°C
Humidity: 35%
Barometer: 1018 hPa
Summary: Clear
Visibility: greater than 10 km
2017/05/27 13:30 LFSB 271330Z VRB03KT CAVOK 30/13 Q1018 NOSIG
LSZR - Rheineck/Altenrh, Switzerland
Distance from HB9FEE: ENE 92km
Updated: Sat, 27-May-2017 3:20pm CEST
Clear
Clear
 Wind from W
Wind: W 7 km/h
Temperature: 25°C
Dew Point: 9°C
Humidity: 36%
Barometer: 1019 hPa
Summary: Clear
Visibility: greater than 10 km
2017/05/27 13:20 LSZR 271320Z 26004KT 210V310 CAVOK 25/09 Q1019 NOSIG RMK I
 
LSZL - Locarno, Switzerland
Distance from HB9FEE: SSE 119km
Updated: Sat, 27-May-2017 2:50pm CEST
Clear
Clear
 Wind from WSW
Wind: WSW 9 km/h
Temperature: 25°C
Dew Point: 16°C
Humidity: 57%
Barometer: 1019 hPa
Clouds: Clear
Visibility: 16 miles
2017/05/27 12:50 LSZL 271250Z AUTO 25005KT 210V290 9999NDV NCD 25/16 Q1019 RMK
LSMP - Payerne (mil/Aut, Switzerland
Distance from HB9FEE: WSW 121km
Updated: Sat, 27-May-2017 10:50am CEST
NOT Current
Clear
Clear
 Wind from varies
Wind: varies 4 km/h
Temperature: 21°C
Dew Point: 12°C
Humidity: 57%
Barometer: 1021 hPa
Summary: Clear
Visibility: greater than 10 km
2017/05/27 08:50 LSMP 270850Z VRB02KT CAVOK 21/12 Q1021 RMK BLU
 
LSGC - Les Eplatures, Switzerland
Distance from HB9FEE: W 123km
Updated: Sat, 27-May-2017 3:20pm CEST
Partly Cloudy
Partly Cloudy
 Wind from varies
Wind: varies 2 km/h
Temperature: 23°C
Dew Point: 11°C
Humidity: 47%
Barometer: 1022 hPa
Clouds: Partly Cloudy
Visibility: 10 km
2017/05/27 13:20 LSGC 271320Z AUTO VRB01KT 9999 NSC 23/11 Q1022
LSZS - Samedan, Switzerland
Distance from HB9FEE: ESE 133km
Updated: Sat, 27-May-2017 3:20pm CEST
Clear
Clear
 Wind from NE
Wind: NE 9 km/h
Temperature: 21°C
Dew Point: 0°C
Humidity: 25%
Barometer: 1024 hPa
Summary: Clear
Visibility: greater than 10 km
2017/05/27 13:20 LSZS 271320Z 04005KT 350V070 CAVOK 21/00 Q1024 RMK P
 
LSGS - Sion (mil/Civ/Au, Switzerland
Distance from HB9FEE: SW 137km
Updated: Sat, 27-May-2017 3:20pm CEST
Few Clouds
Few Clouds
 Wind from WSW
Wind: WSW 26 km/h
Temperature: 30°C
Dew Point: 12°C
Humidity: 33%
Barometer: 1017 hPa
Clouds: Few Clouds
Visibility: 10 km
Cloud details: Few Clouds 3048 m
2017/05/27 13:20 LSGS 271320Z 25014KT 9999 FEW100 30/12 Q1017
LSZA - Lugano (pvt/Aut), Switzerland
Distance from HB9FEE: SSE 138km
Updated: Sat, 27-May-2017 3:20pm CEST
Few Clouds
Few Clouds
 Wind from SSW
Wind: SSW 15 km/h
Temperature: 27°C
Heat Index: 27°C
Dew Point: 13°C
Humidity: 42%
Barometer: 1019 hPa
Clouds: Few Clouds
Visibility: 10 km
Cloud details: Few Clouds 1829 m
2017/05/27 13:20 LSZA 271320Z 20008KT 9999 FEW060 27/13 Q1019 NOSIG